Faxon, Oklahoma
Current Conditions -  °F | °C
As of 5:53 PM on Wednesday 22 Oct 2014 (Local Time) from KLAW Reporting Station
Overcast Overcast  
Wind Chill: 68°   Ceiling: 11000
Heat Index: 68°   Visibility: 10mi
Dew Point: 60°   Wind: 3mph
Humidity: 76%   Direction: 290°WNW
Pressure: 30.1"   Gusts: NA
Location:  34.46°N, 98.58°W
Report Text: KLAW 222253Z 29003KT 10SM OVC110 20/16 A3010 RMK AO2 RAE44 SLP187 P0001 T02000156
Loading
Personal Weather Stations






























Interactive Weather Map
Tropical Storm Tracking
New forecast layout! Learn more

10-Day Weather Forecast

Advertisements
Track Severe Weather on mobile